createdAt,value
2023-02-16T00:00:44.196Z,58.30
2023-02-16T00:03:17.245Z,58.57
2023-02-16T00:05:44.054Z,58.67
2023-02-16T00:08:11.052Z,58.83
2023-02-16T00:10:39.071Z,58.89
2023-02-16T00:13:53.019Z,58.87
2023-02-16T00:16:22.791Z,58.82
2023-02-16T00:18:50.212Z,59.16
2023-02-16T00:21:17.631Z,59.19
2023-02-16T00:23:45.355Z,59.28
2023-02-16T00:26:15.910Z,59.26
2023-02-16T00:28:43.486Z,59.26
2023-02-16T00:31:17.780Z,59.34
2023-02-16T00:33:44.716Z,59.48
2023-02-16T00:36:11.944Z,59.53
2023-02-16T00:38:38.909Z,59.54
2023-02-16T00:41:05.935Z,59.57
2023-02-16T00:43:32.908Z,59.63
2023-02-16T00:45:59.621Z,59.74
2023-02-16T00:48:26.498Z,59.84
2023-02-16T00:50:53.571Z,59.89
2023-02-16T00:53:20.231Z,59.93
2023-02-16T00:55:47.281Z,60.03
2023-02-16T00:58:24.328Z,60.03
2023-02-16T01:01:14.639Z,60.01
2023-02-16T01:03:43.673Z,59.97
2023-02-16T01:06:30.284Z,60.15
2023-02-16T01:09:29.936Z,60.19
2023-02-16T01:11:57.301Z,60.18
2023-02-16T01:14:24.763Z,60.23
2023-02-16T01:16:53.112Z,60.36
2023-02-16T01:19:20.279Z,60.36
2023-02-16T01:21:47.223Z,60.36
2023-02-16T01:24:14.146Z,60.37
2023-02-16T01:26:44.445Z,60.41
2023-02-16T01:29:16.298Z,60.40
2023-02-16T01:31:43.858Z,60.44
2023-02-16T01:34:11.929Z,60.47
2023-02-16T01:36:47.310Z,60.46
2023-02-16T01:39:18.399Z,60.46
2023-02-16T01:41:56.838Z,60.46
2023-02-16T01:44:36.239Z,60.47
2023-02-16T01:47:12.827Z,60.48
2023-02-16T01:49:40.099Z,60.49
2023-02-16T01:52:19.409Z,60.50
2023-02-16T01:55:05.282Z,60.54
2023-02-16T01:57:45.053Z,60.56
2023-02-16T02:00:17.641Z,60.58
2023-02-16T02:02:50.226Z,60.60
2023-02-16T02:05:36.145Z,60.60
2023-02-16T02:08:23.924Z,60.59
2023-02-16T02:11:01.413Z,60.59
2023-02-16T02:13:37.977Z,60.60
2023-02-16T02:16:05.922Z,60.61
2023-02-16T02:18:33.918Z,60.60
2023-02-16T02:21:28.576Z,60.61
2023-02-16T02:24:32.420Z,60.60
2023-02-16T02:27:12.765Z,60.60
2023-02-16T02:30:09.260Z,60.57
2023-02-16T02:33:15.158Z,60.56
2023-02-16T02:36:12.464Z,60.56
2023-02-16T02:38:50.731Z,60.56
2023-02-16T02:41:51.297Z,60.56
2023-02-16T02:44:22.307Z,60.56
2023-02-16T02:46:49.848Z,60.57
2023-02-16T02:49:17.367Z,60.59
2023-02-16T02:51:44.298Z,60.60
2023-02-16T02:54:37.998Z,60.62
2023-02-16T02:57:30.021Z,60.65
2023-02-16T03:00:26.878Z,60.65
2023-02-16T03:02:58.383Z,60.66
2023-02-16T03:05:29.219Z,60.65
2023-02-16T03:08:06.504Z,60.66
2023-02-16T03:10:55.736Z,60.68
2023-02-16T03:13:30.435Z,60.68
2023-02-16T03:15:59.445Z,60.67
2023-02-16T03:18:47.184Z,60.67
2023-02-16T03:21:34.078Z,60.70
2023-02-16T03:24:22.379Z,60.71
2023-02-16T03:27:09.490Z,60.71
2023-02-16T03:29:38.395Z,60.71
2023-02-16T03:32:06.241Z,60.72
2023-02-16T03:34:36.217Z,60.76
2023-02-16T03:37:04.817Z,60.82
2023-02-16T03:39:32.533Z,60.86
2023-02-16T03:41:59.264Z,60.89
2023-02-16T03:44:26.029Z,60.94
2023-02-16T03:46:53.141Z,60.99
2023-02-16T03:49:20.435Z,61.04
2023-02-16T03:51:47.682Z,61.04
2023-02-16T03:54:14.636Z,61.08
2023-02-16T03:56:41.316Z,61.09
2023-02-16T03:59:08.094Z,61.09
2023-02-16T04:01:35.021Z,61.12
2023-02-16T04:04:02.193Z,61.18
2023-02-16T04:06:28.927Z,61.27
2023-02-16T04:08:55.744Z,61.37
2023-02-16T04:11:41.809Z,61.46
2023-02-16T04:14:08.507Z,61.53
2023-02-16T04:16:35.449Z,61.56
2023-02-16T04:19:02.294Z,61.57
2023-02-16T04:21:29.350Z,61.59
2023-02-16T04:23:56.356Z,61.63
2023-02-16T04:26:23.045Z,61.67
2023-02-16T04:28:49.763Z,61.76
2023-02-16T04:31:16.814Z,61.84
2023-02-16T04:33:43.649Z,61.88
2023-02-16T04:36:10.484Z,61.93
2023-02-16T04:38:37.451Z,61.97
2023-02-16T04:41:04.458Z,62.04
2023-02-16T04:43:32.454Z,62.09
2023-02-16T04:45:59.949Z,62.15
2023-02-16T04:48:26.821Z,62.19
2023-02-16T04:50:53.623Z,62.28
2023-02-16T04:53:20.589Z,62.54
2023-02-16T04:55:49.076Z,62.77
2023-02-16T04:58:16.881Z,62.84
2023-02-16T05:00:43.852Z,62.91
2023-02-16T05:03:11.236Z,62.97
2023-02-16T05:05:37.957Z,63.04
2023-02-16T05:08:04.900Z,63.11
2023-02-16T05:10:31.545Z,63.17
2023-02-16T05:13:16.853Z,63.24
2023-02-16T05:15:45.178Z,63.30
2023-02-16T05:18:11.990Z,63.37
2023-02-16T05:20:57.371Z,63.44
2023-02-16T05:23:24.320Z,63.52
2023-02-16T05:25:50.988Z,63.60
2023-02-16T05:28:17.655Z,63.96
2023-02-16T05:30:44.838Z,64.00
2023-02-16T05:33:11.506Z,64.10
2023-02-16T05:35:38.125Z,64.16
2023-02-16T05:38:05.074Z,64.23
2023-02-16T05:40:31.815Z,64.26
2023-02-16T05:42:58.486Z,64.31
2023-02-16T05:45:25.529Z,64.39
2023-02-16T05:47:53.188Z,64.53
2023-02-16T05:50:19.856Z,64.64
2023-02-16T05:52:46.893Z,64.71
2023-02-16T05:55:13.591Z,64.73
2023-02-16T05:57:40.271Z,64.77
2023-02-16T06:00:08.701Z,64.81
2023-02-16T06:02:35.694Z,64.89
2023-02-16T06:05:02.391Z,64.92
2023-02-16T06:07:29.059Z,64.99
2023-02-16T06:09:55.976Z,65.06
2023-02-16T06:12:22.666Z,65.06
2023-02-16T06:14:49.300Z,65.12
2023-02-16T06:17:16.238Z,65.15
2023-02-16T06:19:43.021Z,65.17
2023-02-16T06:22:09.670Z,65.20
2023-02-16T06:24:37.228Z,65.23
2023-02-16T06:27:04.069Z,65.25
2023-02-16T06:29:30.740Z,65.27
2023-02-16T06:31:58.020Z,65.32
2023-02-16T06:34:24.717Z,65.41
2023-02-16T06:36:51.425Z,65.47
2023-02-16T06:39:18.452Z,65.50
2023-02-16T06:41:45.112Z,65.58
2023-02-16T06:44:14.139Z,65.57
2023-02-16T06:46:43.246Z,65.62
2023-02-16T06:49:16.839Z,65.72
2023-02-16T06:51:44.935Z,65.89
2023-02-16T06:54:11.866Z,65.92
2023-02-16T06:56:38.577Z,66.03
2023-02-16T06:59:06.487Z,65.99
2023-02-16T07:01:33.605Z,65.99
2023-02-16T07:04:00.668Z,66.07
2023-02-16T07:06:29.074Z,66.06
2023-02-16T07:08:56.339Z,66.13
2023-02-16T07:11:23.056Z,66.12
2023-02-16T07:13:50.357Z,66.10
2023-02-16T07:16:17.148Z,66.15
2023-02-16T07:18:43.957Z,66.16
2023-02-16T07:21:10.942Z,66.17
2023-02-16T07:23:37.851Z,66.29
2023-02-16T07:26:04.704Z,66.45
2023-02-16T07:28:32.031Z,66.38
2023-02-16T07:30:58.753Z,66.44
2023-02-16T07:33:25.474Z,66.39
2023-02-16T07:35:52.444Z,66.49
2023-02-16T07:38:19.136Z,66.54
2023-02-16T07:40:45.770Z,66.54
2023-02-16T07:43:12.715Z,66.50
2023-02-16T07:45:39.460Z,66.49
2023-02-16T07:48:06.189Z,66.48
2023-02-16T07:50:33.217Z,66.58
2023-02-16T07:53:05.121Z,66.52
2023-02-16T07:55:31.966Z,66.42
2023-02-16T07:58:00.025Z,66.38
2023-02-16T08:00:27.131Z,66.36
2023-02-16T08:02:54.148Z,66.38
2023-02-16T08:05:21.031Z,66.33
2023-02-16T08:07:47.861Z,66.29
2023-02-16T08:10:15.803Z,66.28
2023-02-16T08:12:43.139Z,66.24
2023-02-16T08:15:11.084Z,66.18
2023-02-16T08:17:38.299Z,66.11
2023-02-16T08:20:07.521Z,66.04
2023-02-16T08:22:34.766Z,65.95
2023-02-16T08:25:01.822Z,65.89
2023-02-16T08:27:28.593Z,65.87
2023-02-16T08:29:55.512Z,65.76
2023-02-16T08:32:22.729Z,65.68
2023-02-16T08:34:49.397Z,65.62
2023-02-16T08:37:16.097Z,65.46
2023-02-16T08:39:43.098Z,65.44
2023-02-16T08:42:12.080Z,65.36
2023-02-16T08:44:39.678Z,65.29
2023-02-16T08:47:06.868Z,65.16
2023-02-16T08:49:33.633Z,65.06
2023-02-16T08:52:01.590Z,65.07
2023-02-16T08:54:30.571Z,64.99
2023-02-16T08:56:59.046Z,64.96
2023-02-16T08:59:28.487Z,64.92
2023-02-16T09:01:58.213Z,64.61
2023-02-16T09:04:25.595Z,64.47
2023-02-16T09:06:52.501Z,64.40
2023-02-16T09:09:19.884Z,64.42
2023-02-16T09:11:47.043Z,64.41
2023-02-16T09:14:14.633Z,64.31
2023-02-16T09:16:45.682Z,64.00
2023-02-16T09:19:15.057Z,63.62
2023-02-16T09:21:42.813Z,63.70
2023-02-16T09:24:11.613Z,63.60
2023-02-16T09:26:42.697Z,63.52
2023-02-16T09:29:12.481Z,63.45
2023-02-16T09:31:40.196Z,63.43
2023-02-16T09:34:14.342Z,63.35
2023-02-16T09:36:42.367Z,63.23
2023-02-16T09:39:09.116Z,63.05
2023-02-16T09:41:55.640Z,62.80
2023-02-16T09:44:44.920Z,63.09
2023-02-16T09:47:20.996Z,62.54
2023-02-16T09:49:49.447Z,62.58
2023-02-16T09:52:42.600Z,62.39
2023-02-16T09:55:18.435Z,62.49
2023-02-16T09:58:04.342Z,62.18
2023-02-16T10:00:34.454Z,61.97
2023-02-16T10:03:21.036Z,62.06
2023-02-16T10:06:07.893Z,61.69
2023-02-16T10:08:40.135Z,61.42
2023-02-16T10:11:43.914Z,61.53
2023-02-16T10:14:24.127Z,61.92
2023-02-16T10:17:23.895Z,61.72
2023-02-16T10:20:18.438Z,61.75
2023-02-16T10:23:23.214Z,61.64
2023-02-16T10:25:59.709Z,61.77
2023-02-16T10:28:39.818Z,61.64
2023-02-16T10:31:20.579Z,61.47
2023-02-16T10:34:09.067Z,61.46
2023-02-16T10:37:13.852Z,61.49
2023-02-16T10:39:59.808Z,61.47
2023-02-16T10:42:27.490Z,61.41
2023-02-16T10:45:15.535Z,61.11
2023-02-16T10:47:45.307Z,61.38
2023-02-16T10:50:26.708Z,61.20
2023-02-16T10:53:04.458Z,61.29
2023-02-16T10:55:31.508Z,61.26
2023-02-16T10:58:01.535Z,61.16
2023-02-16T11:01:15.697Z,61.16
2023-02-16T11:03:48.822Z,61.31
2023-02-16T11:06:23.056Z,61.15
2023-02-16T11:08:57.539Z,61.07
2023-02-16T11:11:26.386Z,60.94
2023-02-16T11:14:22.117Z,60.91
2023-02-16T11:17:02.015Z,61.02
2023-02-16T11:19:32.324Z,60.73
2023-02-16T11:21:59.804Z,60.61
2023-02-16T11:24:36.935Z,60.53
2023-02-16T11:27:15.739Z,60.42
2023-02-16T11:29:42.444Z,60.43
2023-02-16T11:32:12.466Z,60.04
2023-02-16T11:34:47.533Z,59.64
2023-02-16T11:37:31.397Z,59.84
2023-02-16T11:40:02.147Z,59.94
2023-02-16T11:42:31.668Z,59.92
2023-02-16T11:45:00.161Z,59.86
2023-02-16T11:47:40.406Z,59.77
2023-02-16T11:50:27.057Z,59.87
2023-02-16T11:52:57.420Z,59.60
2023-02-16T11:55:33.362Z,59.50
2023-02-16T11:58:17.671Z,59.57
2023-02-16T12:01:03.804Z,59.47
2023-02-16T12:03:47.132Z,59.35
2023-02-16T12:06:31.560Z,59.25
2023-02-16T12:09:03.427Z,59.21
2023-02-16T12:11:30.052Z,59.12
2023-02-16T12:14:03.516Z,59.04
2023-02-16T12:16:39.030Z,59.02
2023-02-16T12:19:31.143Z,59.03
2023-02-16T12:22:04.262Z,58.75
2023-02-16T12:24:43.140Z,59.05
2023-02-16T12:27:18.487Z,58.50
2023-02-16T12:29:59.222Z,58.50
2023-02-16T12:32:35.154Z,58.29
2023-02-16T12:35:32.776Z,58.07
2023-02-16T12:38:08.847Z,58.16
2023-02-16T12:40:50.827Z,58.24
2023-02-16T12:43:41.108Z,58.04
2023-02-16T12:46:30.630Z,58.46
2023-02-16T12:49:06.631Z,57.90
2023-02-16T12:51:41.388Z,57.87
2023-02-16T12:54:39.220Z,57.52
2023-02-16T12:57:20.440Z,57.87
2023-02-16T12:59:59.524Z,57.37
2023-02-16T13:02:36.971Z,57.34
2023-02-16T13:05:28.394Z,57.20
2023-02-16T13:08:06.357Z,57.37
2023-02-16T13:10:40.078Z,57.42
2023-02-16T13:13:17.924Z,57.45
2023-02-16T13:15:51.326Z,57.54
2023-02-16T13:18:26.084Z,57.60
2023-02-16T13:21:14.544Z,57.47
2023-02-16T13:23:52.024Z,57.65
2023-02-16T13:26:33.610Z,57.58
2023-02-16T13:29:16.303Z,57.58
2023-02-16T13:32:14.975Z,57.52
2023-02-16T13:34:44.255Z,57.48
2023-02-16T13:37:26.455Z,57.33
2023-02-16T13:40:11.459Z,56.99
2023-02-16T13:43:16.079Z,56.94
2023-02-16T13:45:45.837Z,57.05
2023-02-16T13:48:23.351Z,56.92
2023-02-16T13:50:59.533Z,57.01
2023-02-16T13:53:33.840Z,57.06
2023-02-16T13:56:14.328Z,56.98
2023-02-16T13:58:41.324Z,57.02
2023-02-16T14:01:39.101Z,57.04
2023-02-16T14:04:13.232Z,57.15
2023-02-16T14:06:42.723Z,57.20
2023-02-16T14:09:12.876Z,57.38
2023-02-16T14:12:09.182Z,57.58
2023-02-16T14:14:42.150Z,57.66
2023-02-16T14:17:15.842Z,57.88
2023-02-16T14:19:56.228Z,58.03
2023-02-16T14:22:50.879Z,58.09
2023-02-16T14:25:23.775Z,58.13
2023-02-16T14:27:51.502Z,58.31
2023-02-16T14:30:24.550Z,58.42
2023-02-16T14:33:16.349Z,58.48
2023-02-16T14:35:58.786Z,58.48
2023-02-16T14:38:34.332Z,58.45
2023-02-16T14:41:13.878Z,58.55
2023-02-16T14:43:44.423Z,58.57
2023-02-16T14:46:31.709Z,58.65
2023-02-16T14:49:26.929Z,58.64
2023-02-16T14:52:18.620Z,58.69
2023-02-16T14:55:09.163Z,58.78
2023-02-16T14:58:03.951Z,58.85
2023-02-16T15:00:48.068Z,58.91
2023-02-16T15:03:22.312Z,59.04
2023-02-16T15:06:02.332Z,59.29
2023-02-16T15:08:34.797Z,59.30
2023-02-16T15:12:01.910Z,59.54
2023-02-16T15:14:42.912Z,59.46
2023-02-16T15:17:10.424Z,59.63
2023-02-16T15:19:39.648Z,59.85
2023-02-16T15:22:20.927Z,59.96
2023-02-16T15:24:57.386Z,59.99
2023-02-16T15:27:24.532Z,60.06
2023-02-16T15:30:20.572Z,60.24
2023-02-16T15:32:57.308Z,60.16
2023-02-16T15:35:41.637Z,60.27
2023-02-16T15:38:25.043Z,60.32
2023-02-16T15:40:54.045Z,60.40
2023-02-16T15:43:43.157Z,60.54
2023-02-16T15:46:39.743Z,60.49
2023-02-16T15:49:26.012Z,60.56
2023-02-16T15:51:56.733Z,60.69
2023-02-16T15:54:28.063Z,60.78
2023-02-16T15:57:01.287Z,60.85
2023-02-16T15:59:36.914Z,60.87
2023-02-16T16:02:26.697Z,60.90
2023-02-16T16:05:00.163Z,60.85
2023-02-16T16:07:29.996Z,60.97
2023-02-16T16:09:58.243Z,61.01
2023-02-16T16:12:25.857Z,61.03
2023-02-16T16:14:58.324Z,61.07
2023-02-16T16:17:33.977Z,61.06
2023-02-16T16:20:31.096Z,61.08
2023-02-16T16:22:59.609Z,61.08
2023-02-16T16:25:37.095Z,61.14
2023-02-16T16:28:08.000Z,61.12
2023-02-16T16:30:43.997Z,61.11
2023-02-16T16:33:15.702Z,61.10
2023-02-16T16:35:50.523Z,61.11
2023-02-16T16:38:26.199Z,61.11
2023-02-16T16:41:03.195Z,61.09
2023-02-16T16:43:34.995Z,61.08
2023-02-16T16:46:17.740Z,61.06
2023-02-16T16:48:47.552Z,61.07
2023-02-16T16:51:31.458Z,61.03
2023-02-16T16:54:04.638Z,61.05
2023-02-16T16:56:36.531Z,61.05
2023-02-16T16:59:04.285Z,61.06
2023-02-16T17:01:31.188Z,61.11
2023-02-16T17:03:58.531Z,61.05
2023-02-16T17:06:26.484Z,61.05
2023-02-16T17:08:55.229Z,61.08
2023-02-16T17:11:34.933Z,61.10
2023-02-16T17:14:15.806Z,61.11
2023-02-16T17:16:45.484Z,61.10
2023-02-16T17:19:17.498Z,61.15
2023-02-16T17:21:44.843Z,61.13
2023-02-16T17:24:12.037Z,61.11
2023-02-16T17:26:39.505Z,61.10
2023-02-16T17:29:07.130Z,61.12
2023-02-16T17:31:34.665Z,61.05
2023-02-16T17:34:01.707Z,61.07
2023-02-16T17:36:28.585Z,61.05
2023-02-16T17:38:55.653Z,61.03
2023-02-16T17:41:26.429Z,61.03
2023-02-16T17:43:53.535Z,61.11
2023-02-16T17:46:22.535Z,61.22
2023-02-16T17:48:51.964Z,61.36
2023-02-16T17:51:20.986Z,61.47
2023-02-16T17:53:47.735Z,61.54
2023-02-16T17:56:17.561Z,61.63
2023-02-16T17:58:44.895Z,61.71
2023-02-16T18:01:17.894Z,61.84
2023-02-16T18:03:45.364Z,61.94
2023-02-16T18:06:17.253Z,62.19
2023-02-16T18:08:44.696Z,62.31
2023-02-16T18:11:11.864Z,62.54
2023-02-16T18:13:39.480Z,62.70
2023-02-16T18:16:08.238Z,62.89
2023-02-16T18:18:39.204Z,63.04
2023-02-16T18:21:06.438Z,63.16
2023-02-16T18:23:33.874Z,63.32
2023-02-16T18:26:01.124Z,63.47
2023-02-16T18:28:31.181Z,63.62
2023-02-16T18:30:59.039Z,63.73
2023-02-16T18:33:27.243Z,63.89
2023-02-16T18:35:57.131Z,64.03
2023-02-16T18:38:24.455Z,64.14
2023-02-16T18:40:54.967Z,64.25
2023-02-16T18:43:25.310Z,64.30
2023-02-16T18:45:52.298Z,64.42
2023-02-16T18:48:19.591Z,64.48
2023-02-16T18:50:46.360Z,64.51
2023-02-16T18:53:13.478Z,64.55
2023-02-16T18:55:40.406Z,64.63
2023-02-16T18:58:08.581Z,64.78
2023-02-16T19:00:37.030Z,64.94
2023-02-16T19:03:04.678Z,65.07
2023-02-16T19:05:32.547Z,65.21
2023-02-16T19:07:59.844Z,65.32
2023-02-16T19:10:26.619Z,65.40
2023-02-16T19:12:53.822Z,65.48
2023-02-16T19:15:21.296Z,65.53
2023-02-16T19:17:48.932Z,65.58
2023-02-16T19:20:18.451Z,65.62
2023-02-16T19:22:49.223Z,65.67
2023-02-16T19:25:16.776Z,65.73
2023-02-16T19:27:44.395Z,65.80
2023-02-16T19:30:13.084Z,65.87
2023-02-16T19:32:41.292Z,65.92
2023-02-16T19:35:09.376Z,65.95
2023-02-16T19:37:36.789Z,66.00
2023-02-16T19:40:06.768Z,66.08
2023-02-16T19:42:33.802Z,66.13
2023-02-16T19:45:03.670Z,66.17
2023-02-16T19:47:30.530Z,66.23
2023-02-16T19:49:57.724Z,66.25
2023-02-16T19:52:25.432Z,66.32
2023-02-16T19:54:52.113Z,66.40
2023-02-16T19:57:19.140Z,66.49
2023-02-16T19:59:46.169Z,66.61
2023-02-16T20:02:15.461Z,66.69
2023-02-16T20:04:44.210Z,66.80
2023-02-16T20:07:11.177Z,66.91
2023-02-16T20:09:38.474Z,67.04
2023-02-16T20:12:06.262Z,67.11
2023-02-16T20:14:32.975Z,67.22
2023-02-16T20:16:59.615Z,67.28
2023-02-16T20:19:26.594Z,67.37
2023-02-16T20:21:53.308Z,67.43
2023-02-16T20:24:20.640Z,67.48
2023-02-16T20:26:50.047Z,67.54
2023-02-16T20:29:17.033Z,67.58
2023-02-16T20:31:50.674Z,67.64
2023-02-16T20:34:19.249Z,67.65
2023-02-16T20:36:46.124Z,67.76
2023-02-16T20:39:12.914Z,67.81
2023-02-16T20:41:40.922Z,67.86
2023-02-16T20:44:08.453Z,67.93
2023-02-16T20:46:36.616Z,67.99
2023-02-16T20:49:04.564Z,68.04
2023-02-16T20:51:31.840Z,68.10
2023-02-16T20:54:00.757Z,68.13
2023-02-16T20:56:28.977Z,68.19
2023-02-16T20:58:57.188Z,68.20
2023-02-16T21:01:27.330Z,68.23
2023-02-16T21:03:56.284Z,68.27
2023-02-16T21:06:23.634Z,68.31
2023-02-16T21:08:50.364Z,68.35
2023-02-16T21:11:18.262Z,68.42
2023-02-16T21:13:45.939Z,68.44
2023-02-16T21:16:14.178Z,68.46
2023-02-16T21:18:41.521Z,68.52
2023-02-16T21:21:09.139Z,68.57
2023-02-16T21:23:36.363Z,68.61
2023-02-16T21:26:05.626Z,68.63
2023-02-16T21:28:33.119Z,68.67
2023-02-16T21:31:06.405Z,68.71
2023-02-16T21:33:33.630Z,68.70
2023-02-16T21:36:04.845Z,68.75
2023-02-16T21:38:32.527Z,68.77
2023-02-16T21:41:28.992Z,68.84
2023-02-16T21:44:03.757Z,68.86
2023-02-16T21:46:37.021Z,68.94
2023-02-16T21:49:11.464Z,69.03
2023-02-16T21:51:42.278Z,69.05
2023-02-16T21:54:13.982Z,69.11
2023-02-16T21:56:47.969Z,69.16
2023-02-16T21:59:16.699Z,68.95
2023-02-16T22:01:51.193Z,69.22
2023-02-16T22:04:21.726Z,69.27
2023-02-16T22:06:50.491Z,69.33
2023-02-16T22:09:20.865Z,69.39
2023-02-16T22:11:49.032Z,69.46
2023-02-16T22:14:15.783Z,69.54
2023-02-16T22:16:45.254Z,69.58
2023-02-16T22:19:15.597Z,69.62
2023-02-16T22:21:43.939Z,69.64
2023-02-16T22:24:12.859Z,69.67
2023-02-16T22:26:40.255Z,69.68
2023-02-16T22:29:08.679Z,69.69
2023-02-16T22:31:36.646Z,69.72
2023-02-16T22:34:06.873Z,69.72
2023-02-16T22:36:35.673Z,69.74
2023-02-16T22:39:02.351Z,69.77
2023-02-16T22:41:29.295Z,69.83
2023-02-16T22:43:59.114Z,69.88
2023-02-16T22:46:28.367Z,69.94
2023-02-16T22:48:58.454Z,69.99
2023-02-16T22:51:28.086Z,70.02
2023-02-16T22:53:56.085Z,70.03
2023-02-16T22:56:22.986Z,70.07
2023-02-16T22:58:50.168Z,70.12
2023-02-16T23:01:20.273Z,70.17
2023-02-16T23:03:49.054Z,70.20
2023-02-16T23:06:18.756Z,70.26
2023-02-16T23:08:47.435Z,70.29
2023-02-16T23:11:14.122Z,70.36
2023-02-16T23:13:41.358Z,70.41
2023-02-16T23:16:12.059Z,70.44
2023-02-16T23:18:39.170Z,70.50
2023-02-16T23:21:27.313Z,70.53
2023-02-16T23:23:55.386Z,70.46
2023-02-16T23:26:24.068Z,70.60
2023-02-16T23:28:53.229Z,70.64
2023-02-16T23:31:20.768Z,70.67
2023-02-16T23:33:48.196Z,70.69
2023-02-16T23:36:14.847Z,70.70
2023-02-16T23:38:42.115Z,70.72
2023-02-16T23:41:12.429Z,70.76
2023-02-16T23:43:39.748Z,70.78
2023-02-16T23:46:07.538Z,70.76
2023-02-16T23:48:34.741Z,70.75
2023-02-16T23:51:02.120Z,70.75
2023-02-16T23:53:29.276Z,70.74
2023-02-16T23:56:04.781Z,70.74
2023-02-16T23:58:38.081Z,70.73
